createdAt,value
2023-06-29T00:02:33.458Z,3.70
2023-06-29T00:12:35.329Z,3.67
2023-06-29T00:22:37.105Z,3.80
2023-06-29T00:32:38.872Z,4.10
2023-06-29T00:42:41.177Z,4.20
2023-06-29T00:52:44.352Z,3.80
2023-06-29T01:02:46.631Z,3.63
2023-06-29T01:12:50.089Z,4.10
2023-06-29T01:23:01.963Z,5.00
2023-06-29T01:33:04.309Z,4.70
2023-06-29T01:43:06.655Z,4.00
2023-06-29T01:53:08.745Z,4.33
2023-06-29T02:03:10.957Z,4.20
2023-06-29T02:13:13.259Z,4.37
2023-06-29T02:23:15.354Z,4.20
2023-06-29T02:33:17.536Z,4.10
2023-06-29T02:43:19.648Z,4.27
2023-06-29T02:53:21.962Z,4.80
2023-06-29T03:03:24.272Z,4.10
2023-06-29T03:13:26.515Z,4.53
2023-06-29T03:23:28.697Z,3.90
2023-06-29T03:33:30.856Z,4.30
2023-06-29T03:43:32.983Z,4.57
2023-06-29T03:53:35.115Z,4.10
2023-06-29T04:03:37.228Z,4.70
2023-06-29T04:13:39.483Z,4.87
2023-06-29T04:23:41.585Z,4.80
2023-06-29T04:33:44.190Z,4.80
2023-06-29T04:43:48.833Z,5.00
2023-06-29T04:53:51.122Z,5.43
2023-06-29T05:03:53.405Z,4.73
2023-06-29T05:13:55.599Z,5.57
2023-06-29T05:23:57.852Z,5.43
2023-06-29T05:34:00.037Z,5.87
2023-06-29T05:44:01.835Z,6.10
2023-06-29T05:54:04.707Z,5.30
2023-06-29T06:04:07.207Z,5.03
2023-06-29T06:14:09.170Z,6.27
2023-06-29T06:24:11.421Z,7.33
2023-06-29T06:34:13.120Z,5.53
2023-06-29T06:44:14.888Z,8.77
2023-06-29T06:54:16.638Z,10.30
2023-06-29T07:04:18.348Z,7.60
2023-06-29T07:14:22.403Z,4.77
2023-06-29T07:24:24.388Z,4.90
2023-06-29T07:34:26.203Z,14.10
2023-06-29T07:44:28.557Z,4.87
2023-06-29T07:54:30.251Z,4.63
2023-06-29T08:14:38.306Z,4.33
2023-06-29T08:24:40.055Z,3.30
2023-06-29T08:34:41.788Z,5.27
2023-06-29T08:44:43.585Z,4.50
2023-06-29T08:54:46.163Z,2.90
2023-06-29T09:04:48.067Z,2.60
2023-06-29T09:14:50.159Z,2.60
2023-06-29T09:25:07.175Z,3.27
2023-06-29T09:35:14.924Z,2.70
2023-06-29T09:45:16.729Z,2.20
2023-06-29T09:55:19.238Z,2.17
2023-06-29T10:05:21.604Z,2.10
2023-06-29T10:15:27.425Z,2.70
2023-06-29T10:25:31.509Z,2.43
2023-06-29T10:35:33.390Z,2.63
2023-06-29T10:45:35.424Z,2.53
2023-06-29T10:55:40.227Z,2.20
2023-06-29T11:05:42.051Z,2.20
2023-06-29T11:15:46.002Z,2.50
2023-06-29T11:25:47.668Z,2.30
2023-06-29T11:35:49.663Z,3.40
2023-06-29T11:45:51.701Z,2.75
2023-06-29T11:55:55.215Z,3.43
2023-06-29T12:06:00.438Z,1.80
2023-06-29T12:26:07.253Z,1.90
2023-06-29T12:36:08.951Z,2.40
2023-06-29T12:46:11.638Z,2.35
2023-06-29T12:56:13.415Z,1.88
2023-06-29T13:06:15.175Z,2.05
2023-06-29T13:16:16.979Z,2.15
2023-06-29T13:26:18.849Z,2.28
2023-06-29T13:36:20.702Z,2.67
2023-06-29T13:46:22.454Z,2.70
2023-06-29T13:56:24.807Z,3.10
2023-06-29T14:06:26.580Z,3.03
2023-06-29T14:16:29.642Z,3.07
2023-06-29T14:26:31.353Z,3.17
2023-06-29T14:36:33.084Z,3.60
2023-06-29T14:46:35.004Z,4.10
2023-06-29T14:56:36.914Z,3.67
2023-06-29T15:06:38.634Z,3.93
2023-06-29T15:16:40.538Z,4.15
2023-06-29T15:26:42.504Z,3.75
2023-06-29T15:36:44.223Z,4.43
2023-06-29T15:46:53.807Z,3.73
2023-06-29T15:56:55.542Z,4.23
2023-06-29T16:06:57.333Z,3.60
2023-06-29T16:17:00.225Z,3.67
2023-06-29T16:27:02.101Z,3.23
2023-06-29T16:37:04.094Z,3.00
2023-06-29T16:47:06.015Z,3.03
2023-06-29T16:57:07.931Z,3.30
2023-06-29T17:07:09.756Z,3.40
2023-06-29T17:17:11.770Z,3.10
2023-06-29T17:27:13.589Z,2.70
2023-06-29T17:37:15.327Z,3.10
2023-06-29T17:47:17.048Z,3.03
2023-06-29T17:57:18.825Z,3.20
2023-06-29T18:07:20.791Z,3.20
2023-06-29T18:17:22.589Z,3.27
2023-06-29T18:27:24.363Z,3.43
2023-06-29T18:37:26.144Z,4.03
2023-06-29T18:47:27.931Z,3.30
2023-06-29T18:57:29.756Z,3.50
2023-06-29T19:07:31.499Z,3.50
2023-06-29T19:17:33.345Z,3.20
2023-06-29T19:27:35.188Z,3.43
2023-06-29T19:37:36.894Z,4.83
2023-06-29T19:47:38.898Z,3.67
2023-06-29T19:57:40.683Z,4.10
2023-06-29T20:07:42.632Z,3.57
2023-06-29T20:17:44.456Z,3.60
2023-06-29T20:27:46.526Z,3.60
2023-06-29T20:37:48.389Z,3.67
2023-06-29T20:47:50.439Z,3.87
2023-06-29T20:57:52.220Z,3.60
2023-06-29T21:07:53.984Z,4.00
2023-06-29T21:17:56.642Z,3.93
2023-06-29T21:27:58.624Z,3.90
2023-06-29T21:38:00.617Z,4.17
2023-06-29T21:48:02.469Z,4.23
2023-06-29T21:58:04.216Z,4.27
2023-06-29T22:08:06.092Z,4.50
2023-06-29T22:18:08.028Z,4.37
2023-06-29T22:28:10.438Z,4.57
2023-06-29T22:38:12.155Z,5.03
2023-06-29T22:48:13.884Z,4.90
2023-06-29T22:58:28.196Z,4.33
2023-06-29T23:08:30.071Z,4.70
2023-06-29T23:18:33.521Z,5.23
2023-06-29T23:28:37.075Z,4.77
2023-06-29T23:38:38.729Z,4.83
2023-06-29T23:48:41.486Z,5.30
2023-06-29T23:58:43.171Z,5.03
